EGPFEGPH [AIR007]

Details From EGPF - Glasgow
To EGPH - Edinburgh
Flight Number AIR007
Tags generated
Created
Modified
Stats Distance 37 nm / 69 km
Max Altitude 100 ft / 30 m
Waypoints 3
Social Downloads 10
Likes 0
Share

Download

Looking for another format? Having issues loading an existing format? Contact us
Advertisement - Login to hide

Notes

Basic altitude profile: - Ascent Rate: 2500ft/min - Ascent Speed: 250kts - Cruise Altitude: 35000ft - Cruise Speed: 420kts - Descent Rate: 1500ft/min - Descent Speed: 250kts Options: - Use NATs: yes - Use PACOTS: yes - Use low airways: yes - Use high airways: yes

Route

EGPF GOW EGPH

ID Type Via Altitude (ft/m) Position (lat/lon) Dist (leg/tot) Name
O EGPF APT - 0 / 0 55.87173 / -4.43365 - / 0 nm Glasgow
GOW VOR - 100 / 30 55.87050 / -4.44573 0 / 0 nm GLASGOW VOR-DME
O EGPH APT - 0 / 0 55.94869 / -3.35972 36 / 37 nm Edinburgh

Altitude Profile

Advertisement - Login to hide

EGPF

Details ICAO EGPF (GLA)
Name Glasgow
Region United Kingdom
Timezone Europe/London (UTC+1.0)
Stats Elevation 26 ft / 8 m (AMSL)
Location 55.871700° -4.433700°
Runways 1
Magnetic Variation 1.933° W

METAR

EGPF 081920Z AUTO 26004KT 9999 NCD 18/13 Q1028

Decode

TAF

TAF EGPF 081656Z 0818/0918 26009KT 9999 SCT030 PROB30 TEMPO 0906/0909 BKN014

Decode

Departure Runways

ID Width Length Bearing (true/mag) Surface Threshold Overrun Markings Lighting
05 148 ft / 45 m 8,699 ft / 2,651 m 46.34° / 48.27° ASPHALT 0 ft / 0 m 489 ft / 149 m PREC-APP CENTERLINE EDGE THRESHOLD MALSF
23 148 ft / 45 m 8,699 ft / 2,651 m 226.36° / 228.29° ASPHALT 974 ft / 297 m 0 ft / 0 m PREC-APP CENTERLINE EDGE THRESHOLD MALSF

EGPH

Details ICAO EGPH (EDI)
Name Edinburgh
Region United Kingdom
Timezone Europe/London (UTC+1.0)
Stats Elevation 136 ft / 41 m (AMSL)
Location 55.950000° -3.372500°
Runways 1
Magnetic Variation 1.513° W

METAR

EGPH 081920Z 26005KT 9999 FEW040 18/12 Q1027

Decode

TAF

TAF EGPH 081656Z 0818/0918 25009KT 9999 FEW035

Decode

Destination Runways

ID Width Length Bearing (true/mag) Surface Threshold Overrun Markings Lighting
06 150 ft / 46 m 8,369 ft / 2,551 m 58.80° / 60.31° ASPHALT 692 ft / 211 m 190 ft / 58 m PREC-APP CENTERLINE EDGE THRESHOLD CALVERT TDZ REIL-OMNI
24 150 ft / 46 m 8,369 ft / 2,551 m 238.82° / 240.34° ASPHALT 682 ft / 208 m 194 ft / 59 m PREC-APP CENTERLINE EDGE THRESHOLD CALVERT TDZ REIL-OMNI

Approach Navaids

Runway Type Ident Frequency Range Bearing (true/mag) Slope Elevation
06 GS IVG 108.90 MHz 10 nm / 19 km 58.81° / 60.32 ° 3.00° 136 ft / 41 m (AMSL)
06 DME IVG 108.90 MHz 18 nm / 33 km - - 123 ft / 37 m (AMSL)
06 LOC-ILS IVG 108.90 MHz 18 nm / 33 km 58.81° / 60.32 ° - 136 ft / 41 m (AMSL)
24 LOC-ILS ITH 108.90 MHz 18 nm / 33 km 238.81° / 240.32 ° - 136 ft / 41 m (AMSL)
24 DME ITH 108.90 MHz 18 nm / 33 km - - 123 ft / 37 m (AMSL)
24 GS ITH 108.90 MHz 10 nm / 19 km 238.81° / 240.32 ° 3.00° 136 ft / 41 m (AMSL)

Popular Alternatives